Time;durP1;ratioP1;P1;durP2;ratioP2;P2;SDS_P1;SDS_P2;PMS_P1;PMS_P2;Temp;Humidity;BMP_temperature;BMP_pressure;BME280_temperature;BME280_humidity;BME280_pressure;Samples;Min_cycle;Max_cycle;Signal;HPM_P1;HPM_P2
2021/12/20 00:02:00;;;;;;;;;;;6.60;99.90;;;;;;5008821;28;19925;-72
2021/12/20 00:04:27;;;;;;;;;;;6.60;99.90;;;;;;5002780;28;19932;-70
2021/12/20 00:06:54;;;;;;;;;;;6.60;99.90;;;;;;4995963;28;20410;-70
2021/12/20 00:09:22;;;;;;;;;;;6.60;99.90;;;;;;5011214;28;20004;-71
2021/12/20 00:11:48;;;;;;;;;;;6.60;99.90;;;;;;5008156;28;19926;-71
2021/12/20 00:14:15;;;;;;;;;;;6.70;99.90;;;;;;5024521;28;20036;-71
2021/12/20 00:16:42;;;;;;;;;;;6.60;99.90;;;;;;5008706;28;19926;-71
2021/12/20 00:19:09;;;;;;;;;;;6.70;99.90;;;;;;5010299;28;19929;-72
2021/12/20 00:21:36;;;;;;;;;;;6.60;99.90;;;;;;5009032;28;20012;-72
2021/12/20 00:24:03;;;;;;;;;;;6.50;99.90;;;;;;5006822;28;19929;-71
2021/12/20 00:26:31;;;;;;;;;;;6.60;99.90;;;;;;5008227;28;19932;-71
2021/12/20 00:28:57;;;;;;;;;;;6.60;99.90;;;;;;5011666;28;19925;-72
2021/12/20 00:31:24;;;;;;;;;;;6.60;99.90;;;;;;5012559;28;20012;-71
2021/12/20 00:33:51;;;;;;;;;;;6.60;99.90;;;;;;5008813;28;19948;-71
2021/12/20 00:36:22;;;;;;;;;;;6.60;99.90;;;;;;5005284;28;20383;-76
2021/12/20 00:41:35;;;;;;;;;;;6.60;99.90;;;;;;5010472;28;19932;-72
2021/12/20 00:44:01;;;;;;;;;;;6.60;99.90;;;;;;5013337;28;19932;-71
2021/12/20 00:46:28;;;;;;;;;;;6.60;99.90;;;;;;4997829;28;19932;-71
2021/12/20 00:48:55;;;;;;;;;;;6.60;99.90;;;;;;5007582;28;19960;-72
2021/12/20 00:51:22;;;;;;;;;;;6.60;99.90;;;;;;5009401;28;20299;-71
2021/12/20 00:53:48;;;;;;;;;;;6.60;99.90;;;;;;5010315;28;19925;-71
2021/12/20 00:56:15;;;;;;;;;;;6.60;99.90;;;;;;5009030;28;19925;-72
2021/12/20 00:58:43;;;;;;;;;;;6.60;99.90;;;;;;5012597;28;19926;-72
2021/12/20 01:01:10;;;;;;;;;;;6.60;99.90;;;;;;5009988;28;19931;-72
2021/12/20 01:03:36;;;;;;;;;;;6.60;99.90;;;;;;5010669;28;20388;-72
2021/12/20 01:06:04;;;;;;;;;;;6.60;99.90;;;;;;5004755;28;19963;-72
2021/12/20 01:08:35;;;;;;;;;;;6.60;99.90;;;;;;5007289;28;19926;-72
2021/12/20 01:11:02;;;;;;;;;;;6.60;99.90;;;;;;5009724;28;20300;-71
2021/12/20 01:13:30;;;;;;;;;;;6.60;99.90;;;;;;5008039;28;20283;-71
2021/12/20 01:16:01;;;;;;;;;;;6.60;99.90;;;;;;5005603;28;19951;-71
2021/12/20 01:18:28;;;;;;;;;;;6.60;99.90;;;;;;5009532;28;20787;-71
2021/12/20 01:20:54;;;;;;;;;;;6.60;99.90;;;;;;5009188;28;20348;-72
2021/12/20 01:23:21;;;;;;;;;;;6.60;99.90;;;;;;5009836;28;19932;-71
2021/12/20 01:25:48;;;;;;;;;;;6.60;99.90;;;;;;5006426;28;19926;-71
2021/12/20 01:28:15;;;;;;;;;;;6.60;99.90;;;;;;5006202;28;19932;-71
2021/12/20 01:30:42;;;;;;;;;;;6.70;99.90;;;;;;4993684;28;20336;-71
2021/12/20 01:33:12;;;;;;;;;;;6.60;99.90;;;;;;5009712;28;19925;-72
2021/12/20 01:35:38;;;;;;;;;;;6.60;99.90;;;;;;5013789;28;19976;-71
2021/12/20 01:38:05;;;;;;;;;;;6.60;99.90;;;;;;5012038;28;19926;-71
2021/12/20 01:40:34;;;;;;;;;;;6.50;99.90;;;;;;5014269;28;19925;-71
2021/12/20 01:43:01;;;;;;;;;;;6.50;99.90;;;;;;5011827;28;19925;-71
2021/12/20 01:45:28;;;;;;;;;;;6.40;99.90;;;;;;5013614;28;20024;-71
2021/12/20 01:48:03;;;;;;;;;;;6.50;99.90;;;;;;5011596;28;20474;-70
2021/12/20 01:50:49;;;;;;;;;;;6.50;99.90;;;;;;5015037;28;19925;-70
2021/12/20 01:53:17;;;;;;;;;;;6.40;99.90;;;;;;5012476;28;19936;-71
2021/12/20 01:55:44;;;;;;;;;;;6.40;99.90;;;;;;5015168;28;19932;-71
2021/12/20 01:58:11;;;;;;;;;;;6.50;99.90;;;;;;5014158;28;19932;-71
2021/12/20 02:03:21;;;;;;;;;;;6.50;99.90;;;;;;5013574;28;19932;-71
2021/12/20 02:05:54;;;;;;;;;;;6.50;99.90;;;;;;5013931;28;19926;-70
2021/12/20 02:08:23;;;;;;;;;;;6.50;99.90;;;;;;5013685;28;20372;-71
2021/12/20 02:10:53;;;;;;;;;;;6.40;99.90;;;;;;5013717;28;19929;-71
2021/12/20 02:13:20;;;;;;;;;;;6.40;99.90;;;;;;5013832;28;20288;-71
2021/12/20 02:15:47;;;;;;;;;;;6.40;99.90;;;;;;5013148;28;19932;-70
2021/12/20 02:18:14;;;;;;;;;;;6.40;99.90;;;;;;5010919;28;19951;-71
2021/12/20 02:20:42;;;;;;;;;;;6.40;99.90;;;;;;5013657;28;20402;-71
2021/12/20 02:23:09;;;;;;;;;;;6.40;99.90;;;;;;5013513;28;20293;-71
2021/12/20 02:25:35;;;;;;;;;;;6.30;99.90;;;;;;5012762;28;19929;-70
2021/12/20 02:28:04;;;;;;;;;;;6.30;99.90;;;;;;5012870;28;19948;-70
2021/12/20 02:30:45;;;;;;;;;;;6.30;99.90;;;;;;5013056;28;19932;-71
2021/12/20 02:38:43;;;;;;;;;;;6.20;99.90;;;;;;5012171;28;20442;-70
2021/12/20 02:41:13;;;;;;;;;;;6.30;99.90;;;;;;5013169;28;20027;-70
2021/12/20 02:43:41;;;;;;;;;;;6.40;99.90;;;;;;5009389;28;19926;-70
2021/12/20 02:46:25;;;;;;;;;;;6.40;99.90;;;;;;5012633;28;19932;-70
2021/12/20 02:48:51;;;;;;;;;;;6.30;99.90;;;;;;4999531;28;19941;-71
2021/12/20 02:51:19;;;;;;;;;;;6.30;99.90;;;;;;5013123;28;20300;-71
2021/12/20 02:53:46;;;;;;;;;;;6.30;99.90;;;;;;5008250;28;20021;-72
2021/12/20 02:56:13;;;;;;;;;;;6.20;99.90;;;;;;5014944;28;20009;-71
2021/12/20 02:58:40;;;;;;;;;;;6.20;99.90;;;;;;5013750;28;19932;-71
2021/12/20 03:01:07;;;;;;;;;;;6.20;99.90;;;;;;5014017;28;19926;-70
2021/12/20 03:03:34;;;;;;;;;;;6.20;99.90;;;;;;5012491;28;19926;-71
2021/12/20 03:06:07;;;;;;;;;;;6.20;99.90;;;;;;5011856;28;20012;-70
2021/12/20 03:08:35;;;;;;;;;;;6.20;99.90;;;;;;5012661;28;19926;-70
2021/12/20 03:11:01;;;;;;;;;;;6.20;99.90;;;;;;5012658;28;20008;-70
2021/12/20 03:13:28;;;;;;;;;;;6.10;99.90;;;;;;5010352;28;20023;-70
2021/12/20 03:15:55;;;;;;;;;;;6.10;99.90;;;;;;5013477;28;20016;-70
2021/12/20 03:18:22;;;;;;;;;;;6.10;99.90;;;;;;5018227;28;19925;-73
2021/12/20 03:20:48;;;;;;;;;;;6.10;99.90;;;;;;5022752;28;20009;-71
2021/12/20 03:23:15;;;;;;;;;;;6.10;99.90;;;;;;5016542;28;19947;-75
2021/12/20 03:25:43;;;;;;;;;;;6.10;99.90;;;;;;5007754;28;20032;-73
2021/12/20 03:28:09;;;;;;;;;;;6.20;99.90;;;;;;5013173;28;19925;-70
2021/12/20 03:30:36;;;;;;;;;;;6.20;99.90;;;;;;5016602;28;20300;-69
2021/12/20 03:33:03;;;;;;;;;;;6.20;99.90;;;;;;5012436;28;19925;-69
2021/12/20 03:35:29;;;;;;;;;;;6.20;99.90;;;;;;5010999;28;19925;-69
2021/12/20 03:37:56;;;;;;;;;;;6.20;99.90;;;;;;5011331;28;19932;-70
2021/12/20 03:40:23;;;;;;;;;;;6.10;99.90;;;;;;5012496;28;19926;-70
2021/12/20 03:42:51;;;;;;;;;;;6.20;99.90;;;;;;5009215;28;20012;-70
2021/12/20 03:45:18;;;;;;;;;;;6.10;99.90;;;;;;5013997;28;19929;-70
2021/12/20 03:47:45;;;;;;;;;;;6.20;99.90;;;;;;5012429;28;19929;-70
2021/12/20 03:50:13;;;;;;;;;;;6.30;99.90;;;;;;5014324;28;19925;-70
2021/12/20 03:52:39;;;;;;;;;;;6.30;99.90;;;;;;5009744;28;19942;-70
2021/12/20 03:55:06;;;;;;;;;;;6.30;99.90;;;;;;5011293;28;19926;-70
2021/12/20 03:57:33;;;;;;;;;;;6.30;99.90;;;;;;5011197;28;19936;-70
2021/12/20 04:00:03;;;;;;;;;;;6.30;99.90;;;;;;5013252;28;19926;-70
2021/12/20 04:02:37;;;;;;;;;;;6.20;99.90;;;;;;5012064;28;20016;-70
2021/12/20 04:05:04;;;;;;;;;;;6.20;99.90;;;;;;5012593;28;19932;-70
2021/12/20 04:07:30;;;;;;;;;;;6.20;99.90;;;;;;5011171;28;19968;-71
2021/12/20 04:09:57;;;;;;;;;;;6.20;99.90;;;;;;5012359;28;19971;-71
2021/12/20 04:12:27;;;;;;;;;;;6.10;99.90;;;;;;5011130;28;20434;-71
2021/12/20 04:14:53;;;;;;;;;;;6.10;99.90;;;;;;5011600;28;20291;-72
2021/12/20 04:17:21;;;;;;;;;;;6.20;99.90;;;;;;5010009;28;20410;-71
2021/12/20 04:19:49;;;;;;;;;;;6.20;99.90;;;;;;5005548;28;19926;-71
2021/12/20 04:22:18;;;;;;;;;;;6.30;99.90;;;;;;5011393;28;20371;-71
2021/12/20 04:24:44;;;;;;;;;;;6.20;99.90;;;;;;5011693;28;19988;-70
2021/12/20 04:27:11;;;;;;;;;;;6.20;99.90;;;;;;5011940;28;19936;-70
2021/12/20 04:29:38;;;;;;;;;;;6.20;99.90;;;;;;5012840;28;20307;-71
2021/12/20 04:32:05;;;;;;;;;;;6.20;99.90;;;;;;5005451;28;19948;-71
2021/12/20 04:34:33;;;;;;;;;;;6.20;99.90;;;;;;5011806;28;19929;-70
2021/12/20 04:36:59;;;;;;;;;;;6.20;99.90;;;;;;5011671;28;20285;-70
2021/12/20 04:39:30;;;;;;;;;;;6.30;99.90;;;;;;5011407;28;20004;-70
2021/12/20 04:41:56;;;;;;;;;;;6.30;99.90;;;;;;5010615;28;19992;-70
2021/12/20 04:44:23;;;;;;;;;;;6.20;99.90;;;;;;5011694;28;19932;-71
2021/12/20 04:46:51;;;;;;;;;;;6.20;99.90;;;;;;5010299;28;20512;-71
2021/12/20 04:49:18;;;;;;;;;;;6.20;99.90;;;;;;5011373;28;19925;-71
2021/12/20 04:51:46;;;;;;;;;;;6.20;99.90;;;;;;5010330;28;20408;-71
2021/12/20 04:54:12;;;;;;;;;;;6.10;99.90;;;;;;5012731;28;19981;-72
2021/12/20 04:56:39;;;;;;;;;;;6.10;99.90;;;;;;5012720;28;20295;-71
2021/12/20 04:59:06;;;;;;;;;;;6.10;99.90;;;;;;5007282;28;20400;-75
2021/12/20 05:01:32;;;;;;;;;;;6.20;99.90;;;;;;5010077;28;19926;-72
2021/12/20 05:03:59;;;;;;;;;;;6.20;99.90;;;;;;5012080;28;20295;-71
2021/12/20 05:06:26;;;;;;;;;;;6.10;99.90;;;;;;5012208;28;19979;-71
2021/12/20 05:08:55;;;;;;;;;;;6.20;99.90;;;;;;5000147;28;20385;-71
2021/12/20 05:11:23;;;;;;;;;;;6.10;99.90;;;;;;5008210;28;19955;-72
2021/12/20 05:13:50;;;;;;;;;;;6.10;99.90;;;;;;5014235;28;19925;-71
2021/12/20 05:16:17;;;;;;;;;;;6.10;99.90;;;;;;5013075;28;20016;-71
2021/12/20 05:18:43;;;;;;;;;;;6.10;99.90;;;;;;5014115;28;19925;-71
2021/12/20 05:21:10;;;;;;;;;;;6.10;99.90;;;;;;5005024;28;19926;-71
2021/12/20 05:23:36;;;;;;;;;;;6.10;99.90;;;;;;5013381;28;19979;-71
2021/12/20 05:26:04;;;;;;;;;;;6.10;99.90;;;;;;5015028;28;19940;-70
2021/12/20 05:28:31;;;;;;;;;;;6.10;99.90;;;;;;5014026;28;19933;-70
2021/12/20 05:30:58;;;;;;;;;;;6.10;99.90;;;;;;5014862;28;19988;-70
2021/12/20 05:33:25;;;;;;;;;;;6.10;99.90;;;;;;5012397;28;19932;-70
2021/12/20 05:35:52;;;;;;;;;;;6.10;99.90;;;;;;5014961;28;19932;-70
2021/12/20 05:38:18;;;;;;;;;;;6.10;99.90;;;;;;5013723;28;19925;-72
2021/12/20 05:40:45;;;;;;;;;;;6.00;99.90;;;;;;5014955;28;19925;-69
2021/12/20 05:43:13;;;;;;;;;;;6.00;99.90;;;;;;5011582;28;19925;-70
2021/12/20 05:45:40;;;;;;;;;;;6.00;99.90;;;;;;5009649;28;19925;-71
2021/12/20 05:48:06;;;;;;;;;;;6.00;99.90;;;;;;5012346;28;19929;-70
2021/12/20 05:50:33;;;;;;;;;;;6.00;99.90;;;;;;5014988;28;20044;-70
2021/12/20 05:52:59;;;;;;;;;;;6.00;99.90;;;;;;5013899;28;19925;-70
2021/12/20 05:55:26;;;;;;;;;;;6.10;99.90;;;;;;5014177;28;20396;-71
2021/12/20 05:57:53;;;;;;;;;;;6.10;99.90;;;;;;5013173;28;20629;-70
2021/12/20 06:00:21;;;;;;;;;;;6.10;99.90;;;;;;5011894;28;19926;-70
2021/12/20 06:02:50;;;;;;;;;;;6.00;99.90;;;;;;5014212;28;19931;-70
2021/12/20 06:05:17;;;;;;;;;;;6.00;99.90;;;;;;5010164;28;19930;-70
2021/12/20 06:07:43;;;;;;;;;;;6.00;99.90;;;;;;5010190;28;19961;-71
2021/12/20 06:10:11;;;;;;;;;;;6.00;99.90;;;;;;5014128;28;19968;-71
2021/12/20 06:12:39;;;;;;;;;;;6.00;99.90;;;;;;5013032;28;19931;-71
2021/12/20 06:15:06;;;;;;;;;;;6.00;99.90;;;;;;5012698;28;20262;-70
2021/12/20 06:17:34;;;;;;;;;;;6.00;99.90;;;;;;5014244;28;19926;-71
2021/12/20 06:20:01;;;;;;;;;;;6.00;99.90;;;;;;5012951;28;19926;-71
2021/12/20 06:22:28;;;;;;;;;;;6.00;99.90;;;;;;5014497;28;19931;-70
2021/12/20 06:24:54;;;;;;;;;;;6.10;99.90;;;;;;5017597;28;20028;-73
2021/12/20 06:27:21;;;;;;;;;;;6.10;99.90;;;;;;5013921;28;20415;-70
2021/12/20 06:29:48;;;;;;;;;;;6.00;99.90;;;;;;5009537;28;20380;-70
2021/12/20 06:32:14;;;;;;;;;;;6.00;99.90;;;;;;5009470;28;20400;-71
2021/12/20 06:34:42;;;;;;;;;;;6.10;99.90;;;;;;5012163;28;20406;-71
2021/12/20 06:37:10;;;;;;;;;;;6.10;99.90;;;;;;5006878;28;19932;-70
2021/12/20 06:39:37;;;;;;;;;;;6.00;99.90;;;;;;5012352;28;19925;-71
2021/12/20 06:42:04;;;;;;;;;;;6.00;99.90;;;;;;5011739;28;19926;-70
2021/12/20 06:44:31;;;;;;;;;;;6.00;99.90;;;;;;5011955;28;19925;-70
2021/12/20 06:46:58;;;;;;;;;;;6.00;99.90;;;;;;5009016;28;19934;-70
2021/12/20 06:49:25;;;;;;;;;;;6.00;99.90;;;;;;5010972;28;19948;-70
2021/12/20 06:51:55;;;;;;;;;;;6.00;99.90;;;;;;5009948;28;19940;-70
2021/12/20 06:54:22;;;;;;;;;;;6.00;99.90;;;;;;5011162;28;19926;-70
2021/12/20 06:56:49;;;;;;;;;;;6.00;99.90;;;;;;5010449;28;19933;-70
2021/12/20 06:59:16;;;;;;;;;;;6.10;99.90;;;;;;5013048;28;19925;-70
2021/12/20 07:01:42;;;;;;;;;;;6.20;99.90;;;;;;5010540;28;19925;-70
2021/12/20 07:04:12;;;;;;;;;;;6.20;99.90;;;;;;5008861;28;20020;-69
2021/12/20 07:06:38;;;;;;;;;;;6.20;99.90;;;;;;5008559;28;19936;-69
2021/12/20 07:09:07;;;;;;;;;;;6.10;99.90;;;;;;5008826;28;19929;-70
2021/12/20 07:11:34;;;;;;;;;;;6.10;99.90;;;;;;5008233;28;19926;-69
2021/12/20 07:14:01;;;;;;;;;;;6.10;99.90;;;;;;5010921;28;20028;-69
2021/12/20 07:16:31;;;;;;;;;;;6.00;99.90;;;;;;5012279;28;19984;-70
2021/12/20 07:18:58;;;;;;;;;;;6.00;99.90;;;;;;5014749;28;19925;-71
2021/12/20 07:21:25;;;;;;;;;;;6.00;99.90;;;;;;5013347;28;19926;-70
2021/12/20 07:23:52;;;;;;;;;;;6.00;99.90;;;;;;5010018;28;20019;-69
2021/12/20 07:26:20;;;;;;;;;;;6.00;99.90;;;;;;5010991;28;19932;-70
2021/12/20 07:28:47;;;;;;;;;;;6.10;99.90;;;;;;5011191;28;19926;-70
2021/12/20 07:31:14;;;;;;;;;;;6.00;99.90;;;;;;5015824;28;20032;-71
2021/12/20 07:33:41;;;;;;;;;;;6.00;99.90;;;;;;5013208;28;19957;-70
2021/12/20 07:36:08;;;;;;;;;;;6.00;99.90;;;;;;5005109;28;19934;-70
2021/12/20 07:38:35;;;;;;;;;;;6.00;99.90;;;;;;5010736;28;20371;-70
2021/12/20 07:41:02;;;;;;;;;;;6.00;99.90;;;;;;5009851;28;19926;-70
2021/12/20 07:43:30;;;;;;;;;;;6.00;99.90;;;;;;5012596;28;20307;-71
2021/12/20 07:45:57;;;;;;;;;;;5.90;99.90;;;;;;5014185;28;20588;-70
2021/12/20 07:48:24;;;;;;;;;;;6.00;99.90;;;;;;5011041;28;19947;-71
2021/12/20 07:50:51;;;;;;;;;;;6.10;99.90;;;;;;5010576;28;19933;-70
2021/12/20 07:53:18;;;;;;;;;;;6.10;99.90;;;;;;5008068;28;20011;-70
2021/12/20 07:55:45;;;;;;;;;;;6.00;99.90;;;;;;5008525;28;20032;-70
2021/12/20 07:58:11;;;;;;;;;;;6.00;99.90;;;;;;5009225;28;19932;-71
2021/12/20 08:00:39;;;;;;;;;;;6.00;99.90;;;;;;5011906;28;19934;-70
2021/12/20 08:03:06;;;;;;;;;;;6.00;99.90;;;;;;5009870;28;19932;-69
2021/12/20 08:05:33;;;;;;;;;;;6.00;99.90;;;;;;5011588;28;19925;-69
2021/12/20 08:08:00;;;;;;;;;;;6.00;99.90;;;;;;5009998;28;20273;-69
2021/12/20 08:10:28;;;;;;;;;;;6.00;99.60;;;;;;5009797;28;19947;-70
2021/12/20 08:12:54;;;;;;;;;;;6.00;99.90;;;;;;5009661;28;19929;-70
2021/12/20 08:15:22;;;;;;;;;;;6.10;99.60;;;;;;5011274;28;19925;-70
2021/12/20 08:17:50;;;;;;;;;;;6.10;99.90;;;;;;5010645;28;20003;-70
2021/12/20 08:20:17;;;;;;;;;;;6.10;99.90;;;;;;5011581;28;20039;-69
2021/12/20 08:22:44;;;;;;;;;;;6.00;99.90;;;;;;5010722;28;19925;-71
2021/12/20 08:25:11;;;;;;;;;;;6.10;99.90;;;;;;5011281;28;19987;-71
2021/12/20 08:27:37;;;;;;;;;;;6.00;99.90;;;;;;5010317;28;19929;-70
2021/12/20 08:30:04;;;;;;;;;;;6.00;99.90;;;;;;5012094;28;19925;-70
2021/12/20 08:32:31;;;;;;;;;;;6.00;99.90;;;;;;5014883;28;19925;-70
2021/12/20 08:34:59;;;;;;;;;;;6.00;99.90;;;;;;5010311;28;20028;-71
2021/12/20 08:37:26;;;;;;;;;;;6.00;99.90;;;;;;5011475;28;20020;-71
2021/12/20 08:39:53;;;;;;;;;;;6.00;99.90;;;;;;5011811;28;20367;-71
2021/12/20 08:42:20;;;;;;;;;;;6.10;99.90;;;;;;5011097;28;19925;-71
2021/12/20 08:44:47;;;;;;;;;;;6.10;99.90;;;;;;5012960;28;20024;-70
2021/12/20 08:47:13;;;;;;;;;;;6.10;99.90;;;;;;5013972;28;20402;-70
2021/12/20 08:49:40;;;;;;;;;;;6.10;99.90;;;;;;5014306;28;19957;-71
2021/12/20 08:52:09;;;;;;;;;;;6.10;99.90;;;;;;5014882;28;19926;-71
2021/12/20 08:54:35;;;;;;;;;;;6.10;99.90;;;;;;5014678;28;19929;-71
2021/12/20 08:57:02;;;;;;;;;;;6.20;99.90;;;;;;5013359;28;19925;-71
2021/12/20 08:59:28;;;;;;;;;;;6.20;99.90;;;;;;5013844;28;19931;-71
2021/12/20 09:01:56;;;;;;;;;;;6.20;99.90;;;;;;5011523;28;20292;-71
2021/12/20 09:04:23;;;;;;;;;;;6.20;99.90;;;;;;5009200;28;20360;-71
2021/12/20 09:06:50;;;;;;;;;;;6.20;99.90;;;;;;5011636;28;19940;-71
2021/12/20 09:09:18;;;;;;;;;;;6.20;99.90;;;;;;5013876;28;19972;-71
2021/12/20 09:11:45;;;;;;;;;;;6.20;99.90;;;;;;5012438;28;20035;-71
2021/12/20 09:14:12;;;;;;;;;;;6.20;99.90;;;;;;5014509;28;20406;-71
2021/12/20 09:16:39;;;;;;;;;;;6.30;99.90;;;;;;5013116;28;19959;-72
2021/12/20 09:19:06;;;;;;;;;;;6.30;99.50;;;;;;5011813;28;19925;-69
2021/12/20 09:21:33;;;;;;;;;;;6.40;99.90;;;;;;5010944;28;20371;-71
2021/12/20 09:24:00;;;;;;;;;;;6.40;99.40;;;;;;5013776;28;19949;-70
2021/12/20 09:26:29;;;;;;;;;;;6.40;98.90;;;;;;5010100;28;20048;-71
2021/12/20 09:28:55;;;;;;;;;;;6.40;98.00;;;;;;5010618;28;20408;-69
2021/12/20 09:31:22;;;;;;;;;;;6.40;98.00;;;;;;5008245;28;19926;-70
2021/12/20 09:33:49;;;;;;;;;;;6.40;98.20;;;;;;5007261;28;19926;-70
2021/12/20 09:36:15;;;;;;;;;;;6.50;98.20;;;;;;5009981;28;20221;-70
2021/12/20 09:38:42;;;;;;;;;;;6.50;98.70;;;;;;5012056;28;19949;-70
2021/12/20 09:41:27;;;;;;;;;;;6.50;98.10;;;;;;5011370;28;19929;-68
2021/12/20 09:43:56;;;;;;;;;;;6.50;98.40;;;;;;5014455;28;19926;-69
2021/12/20 09:46:26;;;;;;;;;;;6.50;97.20;;;;;;5009914;28;19932;-69
2021/12/20 09:48:53;;;;;;;;;;;6.60;97.60;;;;;;5009896;28;20024;-70
2021/12/20 09:51:20;;;;;;;;;;;6.60;97.00;;;;;;5007673;28;19949;-71
2021/12/20 09:53:47;;;;;;;;;;;6.60;96.50;;;;;;5006331;28;20352;-70
2021/12/20 09:56:14;;;;;;;;;;;6.60;94.50;;;;;;5007183;28;19933;-71
2021/12/20 09:58:41;;;;;;;;;;;6.70;96.10;;;;;;5007926;28;19926;-70
2021/12/20 10:01:12;;;;;;;;;;;6.70;94.60;;;;;;5008293;28;19925;-71
2021/12/20 10:03:39;;;;;;;;;;;6.70;94.90;;;;;;5008669;28;19940;-70
2021/12/20 10:06:06;;;;;;;;;;;6.80;94.90;;;;;;5009410;28;19925;-71
2021/12/20 10:08:34;;;;;;;;;;;6.80;94.70;;;;;;5012306;28;20032;-70
2021/12/20 10:11:03;;;;;;;;;;;6.80;93.60;;;;;;5009109;28;20379;-70
2021/12/20 10:13:31;;;;;;;;;;;6.80;93.70;;;;;;5011175;28;19934;-70
2021/12/20 10:15:59;;;;;;;;;;;6.80;94.30;;;;;;5010834;28;20013;-71
2021/12/20 10:18:28;;;;;;;;;;;6.80;94.50;;;;;;5012309;28;20027;-71
2021/12/20 10:20:56;;;;;;;;;;;6.80;94.60;;;;;;5012549;28;20020;-70
2021/12/20 10:23:23;;;;;;;;;;;6.90;94.30;;;;;;5015452;28;19925;-70
2021/12/20 10:25:52;;;;;;;;;;;6.90;93.70;;;;;;5008893;28;19937;-70
2021/12/20 10:28:19;;;;;;;;;;;6.90;93.70;;;;;;5011844;28;19932;-71
2021/12/20 10:30:47;;;;;;;;;;;6.90;93.30;;;;;;5005737;28;19925;-70
2021/12/20 10:33:15;;;;;;;;;;;6.90;94.10;;;;;;5010054;28;20017;-70
2021/12/20 10:35:46;;;;;;;;;;;6.90;94.10;;;;;;5009281;28;20614;-72
2021/12/20 10:38:38;;;;;;;;;;;6.80;92.90;;;;;;5005535;28;19936;-71
2021/12/20 10:41:06;;;;;;;;;;;6.80;90.50;;;;;;4994312;28;20388;-71
2021/12/20 10:43:36;;;;;;;;;;;6.90;90.40;;;;;;5006350;28;19932;-75
2021/12/20 10:46:09;;;;;;;;;;;6.90;91.30;;;;;;5010731;28;19972;-69
2021/12/20 10:48:36;;;;;;;;;;;6.80;92.40;;;;;;5007872;28;19934;-69
2021/12/20 10:51:04;;;;;;;;;;;6.80;91.50;;;;;;5006110;28;19926;-69
2021/12/20 10:53:31;;;;;;;;;;;6.80;91.50;;;;;;5008522;28;19925;-68
2021/12/20 10:55:58;;;;;;;;;;;6.80;89.10;;;;;;5011064;28;19926;-70
2021/12/20 10:58:29;;;;;;;;;;;6.80;88.10;;;;;;5006920;28;20032;-70
2021/12/20 11:01:04;;;;;;;;;;;6.80;91.00;;;;;;5010229;28;19926;-69
2021/12/20 11:03:35;;;;;;;;;;;6.80;92.30;;;;;;5005882;28;19936;-69
2021/12/20 11:06:24;;;;;;;;;;;6.80;92.10;;;;;;5010906;28;19925;-70
2021/12/20 11:09:05;;;;;;;;;;;6.80;91.30;;;;;;5003582;28;20422;-70
2021/12/20 11:11:32;;;;;;;;;;;6.80;92.80;;;;;;5005456;28;19948;-70
2021/12/20 11:13:59;;;;;;;;;;;6.80;91.80;;;;;;5008192;28;20299;-70
2021/12/20 11:16:27;;;;;;;;;;;6.90;92.10;;;;;;5006924;28;19926;-68
2021/12/20 11:19:13;;;;;;;;;;;6.80;92.30;;;;;;5001689;28;19969;-68
2021/12/20 11:21:47;;;;;;;;;;;6.70;93.40;;;;;;5002193;28;19929;-67
2021/12/20 11:24:15;;;;;;;;;;;6.70;92.50;;;;;;4993863;28;19961;-68
2021/12/20 11:26:41;;;;;;;;;;;6.70;92.70;;;;;;5002241;28;19992;-68
2021/12/20 11:29:09;;;;;;;;;;;6.80;93.60;;;;;;5006218;28;20020;-68
2021/12/20 11:31:37;;;;;;;;;;;6.90;93.60;;;;;;5006859;28;20332;-68
2021/12/20 11:34:04;;;;;;;;;;;6.80;93.50;;;;;;5007152;28;19926;-68
2021/12/20 11:36:32;;;;;;;;;;;6.80;94.20;;;;;;5000447;28;19956;-68
2021/12/20 11:39:00;;;;;;;;;;;6.80;92.80;;;;;;5005489;28;19933;-73
2021/12/20 11:41:27;;;;;;;;;;;6.80;93.10;;;;;;5006070;28;20031;-68
2021/12/20 11:43:54;;;;;;;;;;;6.80;93.00;;;;;;5003760;28;19929;-66
2021/12/20 11:46:21;;;;;;;;;;;6.80;93.60;;;;;;5005426;28;19925;-69
2021/12/20 11:48:48;;;;;;;;;;;6.80;93.20;;;;;;5005965;28;19930;-67
2021/12/20 11:51:15;;;;;;;;;;;6.80;94.20;;;;;;5009471;28;19947;-68
2021/12/20 11:53:41;;;;;;;;;;;6.80;94.20;;;;;;4999083;28;19948;-69
2021/12/20 11:56:10;;;;;;;;;;;6.80;94.20;;;;;;5003383;28;19936;-68
2021/12/20 11:58:38;;;;;;;;;;;6.80;94.30;;;;;;5004421;28;19925;-68
2021/12/20 12:01:05;;;;;;;;;;;6.80;94.00;;;;;;5004419;28;19926;-67
2021/12/20 12:03:32;;;;;;;;;;;6.80;93.60;;;;;;5005578;28;20392;-68
2021/12/20 12:06:02;;;;;;;;;;;6.70;93.80;;;;;;5007385;28;19929;-68
2021/12/20 12:08:36;;;;;;;;;;;6.80;93.50;;;;;;5006398;28;19933;-67
2021/12/20 12:11:22;;;;;;;;;;;6.70;93.80;;;;;;5002769;28;19929;-67
2021/12/20 12:14:33;;;;;;;;;;;6.80;93.90;;;;;;5005719;28;19930;-67
2021/12/20 12:17:02;;;;;;;;;;;6.80;93.80;;;;;;5005375;28;19933;-67
2021/12/20 12:19:39;;;;;;;;;;;6.80;93.80;;;;;;5007693;28;20379;-68
2021/12/20 12:22:21;;;;;;;;;;;6.80;93.90;;;;;;5001064;28;19925;-68
2021/12/20 12:24:49;;;;;;;;;;;6.80;93.90;;;;;;5004966;28;20068;-68
2021/12/20 12:27:20;;;;;;;;;;;6.80;92.90;;;;;;5005769;28;19929;-67
2021/12/20 12:30:08;;;;;;;;;;;6.80;93.40;;;;;;5006517;28;19979;-69
2021/12/20 12:32:35;;;;;;;;;;;6.90;93.70;;;;;;5006259;28;19933;-68
2021/12/20 12:35:01;;;;;;;;;;;6.80;88.60;;;;;;5007022;28;19935;-68
2021/12/20 12:37:33;;;;;;;;;;;6.90;88.60;;;;;;4995046;28;19926;-69
2021/12/20 12:40:14;;;;;;;;;;;6.90;81.40;;;;;;5005908;28;19957;-68
2021/12/20 12:42:46;;;;;;;;;;;6.90;82.50;;;;;;5005498;28;19981;-68
2021/12/20 12:45:16;;;;;;;;;;;6.90;86.20;;;;;;5003778;28;20383;-68
2021/12/20 12:47:42;;;;;;;;;;;6.90;81.00;;;;;;4999684;28;19925;-67
2021/12/20 12:50:24;;;;;;;;;;;6.90;81.30;;;;;;5000165;28;19932;-67
2021/12/20 12:52:51;;;;;;;;;;;6.90;81.80;;;;;;5007066;28;19933;-67
2021/12/20 12:55:28;;;;;;;;;;;6.80;79.80;;;;;;5006934;28;19925;-69
2021/12/20 12:57:55;;;;;;;;;;;6.80;81.90;;;;;;5003489;28;19934;-68
2021/12/20 13:00:28;;;;;;;;;;;6.80;82.20;;;;;;5007180;28;19929;-68
2021/12/20 13:02:57;;;;;;;;;;;6.80;81.70;;;;;;5005747;28;20318;-67
2021/12/20 13:05:26;;;;;;;;;;;6.80;81.00;;;;;;5007507;28;19961;-70
2021/12/20 13:07:53;;;;;;;;;;;6.70;80.20;;;;;;5009835;28;19925;-70
2021/12/20 13:10:22;;;;;;;;;;;6.80;82.80;;;;;;5007679;28;19929;-72
2021/12/20 13:12:53;;;;;;;;;;;6.70;80.80;;;;;;5004826;28;19964;-71
2021/12/20 13:15:25;;;;;;;;;;;6.70;80.30;;;;;;5007928;28;19925;-72
2021/12/20 13:17:55;;;;;;;;;;;6.60;77.20;;;;;;5006660;28;19926;-73
2021/12/20 13:20:26;;;;;;;;;;;6.60;77.00;;;;;;5008474;28;19971;-72
2021/12/20 13:22:54;;;;;;;;;;;6.60;79.10;;;;;;5006218;28;19995;-72
2021/12/20 13:25:31;;;;;;;;;;;6.60;77.50;;;;;;5006327;28;19925;-71
2021/12/20 13:27:58;;;;;;;;;;;6.50;74.20;;;;;;5006631;28;19933;-73
2021/12/20 13:30:28;;;;;;;;;;;6.50;75.20;;;;;;5007174;28;19936;-72
2021/12/20 13:32:57;;;;;;;;;;;6.60;77.10;;;;;;5008854;28;19936;-73
2021/12/20 13:35:24;;;;;;;;;;;6.60;73.50;;;;;;5007936;28;19991;-72
2021/12/20 13:37:51;;;;;;;;;;;6.60;75.20;;;;;;5009029;28;19943;-71
2021/12/20 13:40:18;;;;;;;;;;;6.60;75.40;;;;;;5009210;28;19925;-71
2021/12/20 13:42:48;;;;;;;;;;;6.60;76.00;;;;;;5008716;28;20237;-71
2021/12/20 13:45:15;;;;;;;;;;;6.60;75.80;;;;;;5008561;28;19932;-72
2021/12/20 13:47:42;;;;;;;;;;;6.60;75.40;;;;;;5009167;28;19929;-72
2021/12/20 13:50:18;;;;;;;;;;;6.60;77.00;;;;;;5008171;28;19929;-72
2021/12/20 13:52:46;;;;;;;;;;;6.60;75.30;;;;;;5007606;28;19925;-72
2021/12/20 13:55:13;;;;;;;;;;;6.50;74.00;;;;;;5009555;28;19936;-72
2021/12/20 13:57:40;;;;;;;;;;;6.50;75.50;;;;;;5005656;28;19934;-72
2021/12/20 14:00:08;;;;;;;;;;;6.50;73.70;;;;;;5008373;28;19925;-72
2021/12/20 14:02:36;;;;;;;;;;;6.50;75.90;;;;;;5008364;28;19960;-71
2021/12/20 14:05:10;;;;;;;;;;;6.50;75.90;;;;;;5006091;28;22323;-72
2021/12/20 14:07:42;;;;;;;;;;;6.50;74.00;;;;;;5010105;28;19925;-71
2021/12/20 14:10:10;;;;;;;;;;;6.50;75.00;;;;;;5011496;28;19933;-71
2021/12/20 14:12:38;;;;;;;;;;;6.50;76.10;;;;;;5010456;28;19926;-71
2021/12/20 14:15:07;;;;;;;;;;;6.50;74.50;;;;;;5008546;28;19925;-71
2021/12/20 14:17:50;;;;;;;;;;;6.50;78.20;;;;;;5008483;28;19931;-72
2021/12/20 14:20:17;;;;;;;;;;;6.30;75.00;;;;;;5007996;28;19933;-71
2021/12/20 14:22:59;;;;;;;;;;;6.40;77.30;;;;;;5011188;28;19979;-72
2021/12/20 14:25:30;;;;;;;;;;;6.40;75.30;;;;;;5007651;28;20019;-71
2021/12/20 14:28:00;;;;;;;;;;;6.40;73.40;;;;;;5008324;28;19934;-71
2021/12/20 14:30:27;;;;;;;;;;;6.40;73.40;;;;;;5007164;28;20380;-71
2021/12/20 14:32:54;;;;;;;;;;;6.50;72.90;;;;;;5006379;28;20016;-71
2021/12/20 14:35:39;;;;;;;;;;;6.50;73.20;;;;;;5007936;28;19925;-71
2021/12/20 14:38:25;;;;;;;;;;;6.50;71.90;;;;;;5008565;28;19934;-71
2021/12/20 14:40:53;;;;;;;;;;;6.50;76.40;;;;;;5004496;28;20265;-71
2021/12/20 14:43:21;;;;;;;;;;;6.40;75.60;;;;;;5004780;28;20386;-71
2021/12/20 14:45:51;;;;;;;;;;;6.30;77.30;;;;;;5006698;28;20063;-73
2021/12/20 14:48:24;;;;;;;;;;;6.30;77.80;;;;;;5008834;28;20024;-71
2021/12/20 14:50:51;;;;;;;;;;;6.30;75.20;;;;;;5008717;28;19932;-71